Flugplatz Segelflugplatz Plätzer (UL)

Hier findest Du alle Informationen zum Flugplatz Segelflugplatz Plätzer (UL).

Informationen für Piloten zum Flugplatz Segelflugplatz Plätzer

Hier findest Du alle relevanten Informationen, die Du als Pilot benötigst, um Segelflugplatz Plätzer anzufliegen.

Flugplatz: Segelflugplatz Plätzer ICAO-Code: UL Flugplatz
Frequenz Turm: 122.205 Mhz GAFOR Gebiet: 47
Frequenz Ground: 122.205 Mhz Mogas: nein
Platzrunde: NO 2200 ft Landegebühr: -
Platzhöhe: - Sunrise: 03:56 Uhr UTC
Pisten: 16/34 - 600 m x 30 m, GRAS Sunset: 18:56 Uhr UTC

Mitglieder, die in Segelflugplatz Plätzer fliegen

Flugwetter am Flugplatz Segelflugplatz Plätzer

Die METAR Information stammen aus EDVK (81.48 km entfernt).

METAR Code:
2022/08/02 19:20
EDVK 021920Z 18002KT CAVOK 24/13 Q1017

Flugschulen am Flugplatz Segelflugplatz Plätzer

Am Flugplatz Segelflugplatz Plätzer gibt es 2 Flugschulen.

Benachbarte Flugplätze und Flugschulen

Es gibt 11 weitere Flugplätze in einem Umkreis von 50 km um den Flugplatz Segelflugplatz Plätzer.

Jetzt anmelden

Passwort vergessen

Umfrage Archiv

Sendet Ihr ADS-B und/oder FLARM?

Ja
83.2 %
Nein
16.8 %
Stimmen: 197 | Diskussion
Anzeige: Roland Aircraft
Statistik Alle Mitglieder

Aktuell sind 73 Besucher online, davon 2 Mitglieder und 71 Gäste.


Mitglieder online:
Schubschrauber  HansOtto 

Anzeige: ULPower Aero Engines Anzeige: Pocket FMS